sensor_id;sensor_type;location;lat;lon;timestamp;temperature;humidity
64468;DHT22;50853;46.836;16.820;2022-07-17T00:01:12;18.10;56.50
64468;DHT22;50853;46.836;16.820;2022-07-17T00:03:38;18.10;57.70
64468;DHT22;50853;46.836;16.820;2022-07-17T00:06:04;18.00;55.80
64468;DHT22;50853;46.836;16.820;2022-07-17T00:08:30;18.00;57.20
64468;DHT22;50853;46.836;16.820;2022-07-17T00:10:58;18.00;56.10
64468;DHT22;50853;46.836;16.820;2022-07-17T00:13:24;17.90;55.80
64468;DHT22;50853;46.836;16.820;2022-07-17T00:15:51;17.90;55.00
64468;DHT22;50853;46.836;16.820;2022-07-17T00:18:16;17.80;56.30
64468;DHT22;50853;46.836;16.820;2022-07-17T00:20:42;17.90;57.60
64468;DHT22;50853;46.836;16.820;2022-07-17T00:23:10;17.80;58.30
64468;DHT22;50853;46.836;16.820;2022-07-17T00:25:36;17.80;58.80
64468;DHT22;50853;46.836;16.820;2022-07-17T00:28:03;17.70;57.60
64468;DHT22;50853;46.836;16.820;2022-07-17T00:30:29;17.70;54.50
64468;DHT22;50853;46.836;16.820;2022-07-17T00:32:55;17.70;56.20
64468;DHT22;50853;46.836;16.820;2022-07-17T00:35:21;17.70;54.40
64468;DHT22;50853;46.836;16.820;2022-07-17T00:37:47;17.70;53.90
64468;DHT22;50853;46.836;16.820;2022-07-17T00:40:18;17.70;55.20
64468;DHT22;50853;46.836;16.820;2022-07-17T00:42:44;17.70;55.20
64468;DHT22;50853;46.836;16.820;2022-07-17T00:45:12;17.70;54.10
64468;DHT22;50853;46.836;16.820;2022-07-17T00:47:57;17.60;54.80
64468;DHT22;50853;46.836;16.820;2022-07-17T00:50:29;17.60;57.40
64468;DHT22;50853;46.836;16.820;2022-07-17T00:52:56;17.50;57.90
64468;DHT22;50853;46.836;16.820;2022-07-17T00:55:23;17.50;59.00
64468;DHT22;50853;46.836;16.820;2022-07-17T00:57:50;17.50;60.20
64468;DHT22;50853;46.836;16.820;2022-07-17T01:00:18;17.40;60.40
64468;DHT22;50853;46.836;16.820;2022-07-17T01:02:49;17.40;60.00
64468;DHT22;50853;46.836;16.820;2022-07-17T01:05:16;17.40;59.70
64468;DHT22;50853;46.836;16.820;2022-07-17T01:07:42;17.30;59.20
64468;DHT22;50853;46.836;16.820;2022-07-17T01:10:09;17.30;57.70
64468;DHT22;50853;46.836;16.820;2022-07-17T01:12:35;17.20;56.90
64468;DHT22;50853;46.836;16.820;2022-07-17T01:15:02;17.20;57.30
64468;DHT22;50853;46.836;16.820;2022-07-17T01:17:30;17.20;56.90
64468;DHT22;50853;46.836;16.820;2022-07-17T01:19:56;17.20;55.90
64468;DHT22;50853;46.836;16.820;2022-07-17T01:22:22;17.20;56.00
64468;DHT22;50853;46.836;16.820;2022-07-17T01:24:47;17.20;56.80
64468;DHT22;50853;46.836;16.820;2022-07-17T01:27:14;17.10;57.90
64468;DHT22;50853;46.836;16.820;2022-07-17T01:29:41;17.10;57.90
64468;DHT22;50853;46.836;16.820;2022-07-17T01:32:07;17.10;58.80
64468;DHT22;50853;46.836;16.820;2022-07-17T01:34:33;17.00;59.40
64468;DHT22;50853;46.836;16.820;2022-07-17T01:36:59;17.00;57.20
64468;DHT22;50853;46.836;16.820;2022-07-17T01:39:25;17.00;58.70
64468;DHT22;50853;46.836;16.820;2022-07-17T01:42:09;16.90;57.90
64468;DHT22;50853;46.836;16.820;2022-07-17T01:44:35;16.90;58.10
64468;DHT22;50853;46.836;16.820;2022-07-17T01:47:02;16.90;57.10
64468;DHT22;50853;46.836;16.820;2022-07-17T01:49:29;16.90;57.10
64468;DHT22;50853;46.836;16.820;2022-07-17T01:51:55;16.80;56.80
64468;DHT22;50853;46.836;16.820;2022-07-17T01:54:28;16.80;56.80
64468;DHT22;50853;46.836;16.820;2022-07-17T01:56:54;16.80;57.50
64468;DHT22;50853;46.836;16.820;2022-07-17T01:59:19;16.80;56.40
64468;DHT22;50853;46.836;16.820;2022-07-17T02:01:45;16.80;56.40
64468;DHT22;50853;46.836;16.820;2022-07-17T02:04:11;16.80;56.20
64468;DHT22;50853;46.836;16.820;2022-07-17T02:06:37;16.70;56.60
64468;DHT22;50853;46.836;16.820;2022-07-17T02:09:03;16.80;56.20
64468;DHT22;50853;46.836;16.820;2022-07-17T02:11:29;16.70;55.80
64468;DHT22;50853;46.836;16.820;2022-07-17T02:13:55;16.80;56.00
64468;DHT22;50853;46.836;16.820;2022-07-17T02:16:20;16.70;56.90
64468;DHT22;50853;46.836;16.820;2022-07-17T02:18:46;16.70;56.50
64468;DHT22;50853;46.836;16.820;2022-07-17T02:21:12;16.70;56.90
64468;DHT22;50853;46.836;16.820;2022-07-17T02:23:38;16.60;56.80
64468;DHT22;50853;46.836;16.820;2022-07-17T02:26:04;16.60;56.90
64468;DHT22;50853;46.836;16.820;2022-07-17T02:28:30;16.50;57.40
64468;DHT22;50853;46.836;16.820;2022-07-17T02:30:56;16.50;57.70
64468;DHT22;50853;46.836;16.820;2022-07-17T02:33:22;16.50;60.00
64468;DHT22;50853;46.836;16.820;2022-07-17T02:35:47;16.40;59.10
64468;DHT22;50853;46.836;16.820;2022-07-17T02:38:13;16.40;59.90
64468;DHT22;50853;46.836;16.820;2022-07-17T02:40:40;16.30;60.50
64468;DHT22;50853;46.836;16.820;2022-07-17T02:43:07;16.30;60.20
64468;DHT22;50853;46.836;16.820;2022-07-17T02:45:34;16.20;60.10
64468;DHT22;50853;46.836;16.820;2022-07-17T02:48:00;16.20;60.10
64468;DHT22;50853;46.836;16.820;2022-07-17T02:50:26;16.20;60.50
64468;DHT22;50853;46.836;16.820;2022-07-17T02:52:51;16.10;60.50
64468;DHT22;50853;46.836;16.820;2022-07-17T02:55:18;16.10;60.00
64468;DHT22;50853;46.836;16.820;2022-07-17T02:57:44;16.10;60.60
64468;DHT22;50853;46.836;16.820;2022-07-17T03:00:15;16.10;61.00
64468;DHT22;50853;46.836;16.820;2022-07-17T03:02:42;16.00;60.80
64468;DHT22;50853;46.836;16.820;2022-07-17T03:05:09;16.00;61.10
64468;DHT22;50853;46.836;16.820;2022-07-17T03:07:35;16.00;61.70
64468;DHT22;50853;46.836;16.820;2022-07-17T03:10:02;15.90;62.00
64468;DHT22;50853;46.836;16.820;2022-07-17T03:12:28;15.90;62.00
64468;DHT22;50853;46.836;16.820;2022-07-17T03:14:54;15.90;62.00
64468;DHT22;50853;46.836;16.820;2022-07-17T03:17:20;15.80;62.80
64468;DHT22;50853;46.836;16.820;2022-07-17T03:19:45;15.80;62.40
64468;DHT22;50853;46.836;16.820;2022-07-17T03:22:11;15.80;63.00
64468;DHT22;50853;46.836;16.820;2022-07-17T03:24:37;15.80;63.20
64468;DHT22;50853;46.836;16.820;2022-07-17T03:27:03;15.80;63.00
64468;DHT22;50853;46.836;16.820;2022-07-17T03:29:29;15.80;63.10
64468;DHT22;50853;46.836;16.820;2022-07-17T03:31:55;15.80;62.60
64468;DHT22;50853;46.836;16.820;2022-07-17T03:34:20;15.80;62.50
64468;DHT22;50853;46.836;16.820;2022-07-17T03:36:46;15.90;61.40
64468;DHT22;50853;46.836;16.820;2022-07-17T03:39:14;15.90;62.20
64468;DHT22;50853;46.836;16.820;2022-07-17T03:41:40;16.00;61.40
64468;DHT22;50853;46.836;16.820;2022-07-17T03:44:06;16.10;60.60
64468;DHT22;50853;46.836;16.820;2022-07-17T03:46:32;16.20;62.20
64468;DHT22;50853;46.836;16.820;2022-07-17T03:48:58;16.30;62.30
64468;DHT22;50853;46.836;16.820;2022-07-17T03:51:24;16.40;61.60
64468;DHT22;50853;46.836;16.820;2022-07-17T03:53:50;16.50;62.00
64468;DHT22;50853;46.836;16.820;2022-07-17T03:56:16;16.60;62.40
64468;DHT22;50853;46.836;16.820;2022-07-17T03:58:42;16.80;61.70
64468;DHT22;50853;46.836;16.820;2022-07-17T04:01:08;16.90;61.70
64468;DHT22;50853;46.836;16.820;2022-07-17T04:03:34;17.00;61.50
64468;DHT22;50853;46.836;16.820;2022-07-17T04:06:00;17.20;61.20
64468;DHT22;50853;46.836;16.820;2022-07-17T04:08:26;17.30;59.60
64468;DHT22;50853;46.836;16.820;2022-07-17T04:10:52;17.50;61.30
64468;DHT22;50853;46.836;16.820;2022-07-17T04:13:17;17.70;61.40
64468;DHT22;50853;46.836;16.820;2022-07-17T04:15:43;17.80;60.70
64468;DHT22;50853;46.836;16.820;2022-07-17T04:18:16;18.00;60.90
64468;DHT22;50853;46.836;16.820;2022-07-17T04:20:43;18.20;62.10
64468;DHT22;50853;46.836;16.820;2022-07-17T04:23:09;18.40;60.20
64468;DHT22;50853;46.836;16.820;2022-07-17T04:25:35;18.50;61.30
64468;DHT22;50853;46.836;16.820;2022-07-17T04:28:01;18.70;60.20
64468;DHT22;50853;46.836;16.820;2022-07-17T04:30:27;18.90;59.90
64468;DHT22;50853;46.836;16.820;2022-07-17T04:32:53;19.10;60.20
64468;DHT22;50853;46.836;16.820;2022-07-17T04:35:18;19.30;59.40
64468;DHT22;50853;46.836;16.820;2022-07-17T04:37:44;19.50;59.50
64468;DHT22;50853;46.836;16.820;2022-07-17T04:40:11;19.60;58.30
64468;DHT22;50853;46.836;16.820;2022-07-17T04:42:37;19.90;59.70
64468;DHT22;50853;46.836;16.820;2022-07-17T04:45:05;20.00;58.40
64468;DHT22;50853;46.836;16.820;2022-07-17T04:47:31;20.20;59.50
64468;DHT22;50853;46.836;16.820;2022-07-17T04:49:57;20.40;58.50
64468;DHT22;50853;46.836;16.820;2022-07-17T04:52:23;20.50;57.70
64468;DHT22;50853;46.836;16.820;2022-07-17T04:54:48;20.70;57.80
64468;DHT22;50853;46.836;16.820;2022-07-17T04:57:14;20.80;57.70
64468;DHT22;50853;46.836;16.820;2022-07-17T04:59:40;21.00;57.20
64468;DHT22;50853;46.836;16.820;2022-07-17T05:02:06;21.10;56.20
64468;DHT22;50853;46.836;16.820;2022-07-17T05:04:32;21.30;56.60
64468;DHT22;50853;46.836;16.820;2022-07-17T05:06:58;21.40;55.30
64468;DHT22;50853;46.836;16.820;2022-07-17T05:09:24;21.60;55.20
64468;DHT22;50853;46.836;16.820;2022-07-17T05:11:50;21.80;55.20
64468;DHT22;50853;46.836;16.820;2022-07-17T05:14:16;21.90;55.30
64468;DHT22;50853;46.836;16.820;2022-07-17T05:16:42;22.10;55.70
64468;DHT22;50853;46.836;16.820;2022-07-17T05:19:08;22.20;53.90
64468;DHT22;50853;46.836;16.820;2022-07-17T05:21:34;22.30;54.50
64468;DHT22;50853;46.836;16.820;2022-07-17T05:24:00;22.30;52.00
64468;DHT22;50853;46.836;16.820;2022-07-17T05:26:25;22.60;53.50
64468;DHT22;50853;46.836;16.820;2022-07-17T05:28:52;22.70;52.10
64468;DHT22;50853;46.836;16.820;2022-07-17T05:31:18;23.00;53.80
64468;DHT22;50853;46.836;16.820;2022-07-17T05:33:44;23.10;52.40
64468;DHT22;50853;46.836;16.820;2022-07-17T05:36:10;23.20;52.50
64468;DHT22;50853;46.836;16.820;2022-07-17T05:38:36;23.40;53.70
64468;DHT22;50853;46.836;16.820;2022-07-17T05:41:03;23.50;49.50
64468;DHT22;50853;46.836;16.820;2022-07-17T05:43:29;23.70;52.50
64468;DHT22;50853;46.836;16.820;2022-07-17T05:45:55;23.80;51.60
64468;DHT22;50853;46.836;16.820;2022-07-17T05:48:21;23.60;47.40
64468;DHT22;50853;46.836;16.820;2022-07-17T05:50:47;24.00;49.50
64468;DHT22;50853;46.836;16.820;2022-07-17T05:53:13;24.30;51.10
64468;DHT22;50853;46.836;16.820;2022-07-17T05:55:41;24.40;49.80
64468;DHT22;50853;46.836;16.820;2022-07-17T05:58:07;24.60;50.50
64468;DHT22;50853;46.836;16.820;2022-07-17T06:00:34;24.50;48.60
64468;DHT22;50853;46.836;16.820;2022-07-17T06:03:00;24.50;44.60
64468;DHT22;50853;46.836;16.820;2022-07-17T06:05:27;24.60;47.90
64468;DHT22;50853;46.836;16.820;2022-07-17T06:07:56;24.40;45.50
64468;DHT22;50853;46.836;16.820;2022-07-17T06:10:23;24.60;47.30
64468;DHT22;50853;46.836;16.820;2022-07-17T06:12:49;24.90;47.70
64468;DHT22;50853;46.836;16.820;2022-07-17T06:15:18;24.90;47.50
64468;DHT22;50853;46.836;16.820;2022-07-17T06:17:44;24.90;47.70
64468;DHT22;50853;46.836;16.820;2022-07-17T06:20:11;25.20;43.10
64468;DHT22;50853;46.836;16.820;2022-07-17T06:22:38;25.40;47.00
64468;DHT22;50853;46.836;16.820;2022-07-17T06:25:04;25.60;44.50
64468;DHT22;50853;46.836;16.820;2022-07-17T06:27:30;25.40;42.30
64468;DHT22;50853;46.836;16.820;2022-07-17T06:29:56;25.70;43.90
64468;DHT22;50853;46.836;16.820;2022-07-17T06:32:22;25.80;44.00
64468;DHT22;50853;46.836;16.820;2022-07-17T06:34:48;26.00;43.20
64468;DHT22;50853;46.836;16.820;2022-07-17T06:37:13;25.90;44.30
64468;DHT22;50853;46.836;16.820;2022-07-17T06:39:39;26.10;44.40
64468;DHT22;50853;46.836;16.820;2022-07-17T06:42:05;26.40;42.40
64468;DHT22;50853;46.836;16.820;2022-07-17T06:44:31;26.20;42.50
64468;DHT22;50853;46.836;16.820;2022-07-17T06:46:57;26.40;42.90
64468;DHT22;50853;46.836;16.820;2022-07-17T06:49:23;26.50;43.80
64468;DHT22;50853;46.836;16.820;2022-07-17T06:51:49;26.40;42.70
64468;DHT22;50853;46.836;16.820;2022-07-17T06:54:15;26.70;42.40
64468;DHT22;50853;46.836;16.820;2022-07-17T06:56:42;26.80;41.40
64468;DHT22;50853;46.836;16.820;2022-07-17T06:59:08;26.90;42.40
64468;DHT22;50853;46.836;16.820;2022-07-17T07:01:35;26.90;42.90
64468;DHT22;50853;46.836;16.820;2022-07-17T07:04:03;26.40;42.30
64468;DHT22;50853;46.836;16.820;2022-07-17T07:06:30;26.90;43.60
64468;DHT22;50853;46.836;16.820;2022-07-17T07:08:56;27.10;39.80
64468;DHT22;50853;46.836;16.820;2022-07-17T07:11:22;27.10;38.50
64468;DHT22;50853;46.836;16.820;2022-07-17T07:13:48;26.70;37.80
64468;DHT22;50853;46.836;16.820;2022-07-17T07:16:14;26.70;40.70
64468;DHT22;50853;46.836;16.820;2022-07-17T07:18:40;26.50;38.10
64468;DHT22;50853;46.836;16.820;2022-07-17T07:21:06;26.90;39.10
64468;DHT22;50853;46.836;16.820;2022-07-17T07:35:39;27.40;38.40
64468;DHT22;50853;46.836;16.820;2022-07-17T07:38:05;27.50;37.20
64468;DHT22;50853;46.836;16.820;2022-07-17T07:40:31;27.40;34.60
64468;DHT22;50853;46.836;16.820;2022-07-17T07:42:57;27.60;38.20
64468;DHT22;50853;46.836;16.820;2022-07-17T07:45:23;27.80;35.00
64468;DHT22;50853;46.836;16.820;2022-07-17T07:47:50;27.90;37.90
64468;DHT22;50853;46.836;16.820;2022-07-17T07:50:17;27.90;40.00
64468;DHT22;50853;46.836;16.820;2022-07-17T07:52:43;27.70;36.50
64468;DHT22;50853;46.836;16.820;2022-07-17T07:55:10;28.20;37.60
64468;DHT22;50853;46.836;16.820;2022-07-17T07:57:37;28.10;35.20
64468;DHT22;50853;46.836;16.820;2022-07-17T08:00:06;28.20;35.10
64468;DHT22;50853;46.836;16.820;2022-07-17T08:02:33;28.10;34.70
64468;DHT22;50853;46.836;16.820;2022-07-17T08:04:59;28.60;36.90
64468;DHT22;50853;46.836;16.820;2022-07-17T08:07:26;28.90;35.60
64468;DHT22;50853;46.836;16.820;2022-07-17T08:09:53;28.50;35.50
64468;DHT22;50853;46.836;16.820;2022-07-17T08:12:19;28.60;34.80
64468;DHT22;50853;46.836;16.820;2022-07-17T08:14:44;28.70;34.60
64468;DHT22;50853;46.836;16.820;2022-07-17T08:17:10;29.20;38.30
64468;DHT22;50853;46.836;16.820;2022-07-17T08:19:36;29.40;33.60
64468;DHT22;50853;46.836;16.820;2022-07-17T08:22:02;29.60;39.00
64468;DHT22;50853;46.836;16.820;2022-07-17T08:24:28;29.90;37.60
64468;DHT22;50853;46.836;16.820;2022-07-17T08:26:54;29.30;37.70
64468;DHT22;50853;46.836;16.820;2022-07-17T08:29:20;28.90;35.20
64468;DHT22;50853;46.836;16.820;2022-07-17T08:31:46;29.20;32.30
64468;DHT22;50853;46.836;16.820;2022-07-17T08:34:12;29.50;35.80
64468;DHT22;50853;46.836;16.820;2022-07-17T08:36:41;28.60;35.50
64468;DHT22;50853;46.836;16.820;2022-07-17T08:39:06;29.00;36.20
64468;DHT22;50853;46.836;16.820;2022-07-17T08:41:37;29.50;33.00
64468;DHT22;50853;46.836;16.820;2022-07-17T08:44:06;29.60;34.10
64468;DHT22;50853;46.836;16.820;2022-07-17T08:46:39;29.90;33.10
64468;DHT22;50853;46.836;16.820;2022-07-17T08:49:07;29.40;33.30
64468;DHT22;50853;46.836;16.820;2022-07-17T08:51:34;29.20;32.10
64468;DHT22;50853;46.836;16.820;2022-07-17T08:54:00;29.00;32.70
64468;DHT22;50853;46.836;16.820;2022-07-17T08:56:27;29.50;37.40
64468;DHT22;50853;46.836;16.820;2022-07-17T08:58:53;29.50;34.30
64468;DHT22;50853;46.836;16.820;2022-07-17T09:01:19;29.30;32.20
64468;DHT22;50853;46.836;16.820;2022-07-17T09:04:00;29.70;33.60
64468;DHT22;50853;46.836;16.820;2022-07-17T09:06:31;30.10;34.50
64468;DHT22;50853;46.836;16.820;2022-07-17T09:09:11;30.20;33.80
64468;DHT22;50853;46.836;16.820;2022-07-17T09:11:46;30.30;32.50
64468;DHT22;50853;46.836;16.820;2022-07-17T09:14:13;29.60;30.20
64468;DHT22;50853;46.836;16.820;2022-07-17T09:16:56;30.00;36.00
64468;DHT22;50853;46.836;16.820;2022-07-17T09:19:26;30.30;34.10
64468;DHT22;50853;46.836;16.820;2022-07-17T09:22:04;30.30;30.60
64468;DHT22;50853;46.836;16.820;2022-07-17T09:24:51;30.60;33.00
64468;DHT22;50853;46.836;16.820;2022-07-17T09:27:35;30.30;31.00
64468;DHT22;50853;46.836;16.820;2022-07-17T09:30:11;30.70;34.90
64468;DHT22;50853;46.836;16.820;2022-07-17T09:32:41;30.90;36.50
64468;DHT22;50853;46.836;16.820;2022-07-17T09:35:09;30.80;31.40
64468;DHT22;50853;46.836;16.820;2022-07-17T09:37:37;30.70;30.10
64468;DHT22;50853;46.836;16.820;2022-07-17T09:40:13;30.70;34.50
64468;DHT22;50853;46.836;16.820;2022-07-17T09:42:59;31.20;33.50
64468;DHT22;50853;46.836;16.820;2022-07-17T09:45:25;31.10;35.90
64468;DHT22;50853;46.836;16.820;2022-07-17T09:47:53;31.60;34.30
64468;DHT22;50853;46.836;16.820;2022-07-17T09:50:19;31.50;36.40
64468;DHT22;50853;46.836;16.820;2022-07-17T09:52:45;32.20;35.30
64468;DHT22;50853;46.836;16.820;2022-07-17T09:55:11;32.50;35.20
64468;DHT22;50853;46.836;16.820;2022-07-17T09:57:41;32.30;34.00
64468;DHT22;50853;46.836;16.820;2022-07-17T10:00:09;32.70;36.30
64468;DHT22;50853;46.836;16.820;2022-07-17T10:02:41;31.40;32.20
64468;DHT22;50853;46.836;16.820;2022-07-17T10:05:12;31.40;33.90
64468;DHT22;50853;46.836;16.820;2022-07-17T10:07:42;31.70;33.30
64468;DHT22;50853;46.836;16.820;2022-07-17T10:10:12;31.80;31.10
64468;DHT22;50853;46.836;16.820;2022-07-17T10:12:40;31.90;29.60
64468;DHT22;50853;46.836;16.820;2022-07-17T10:15:08;32.10;32.00
64468;DHT22;50853;46.836;16.820;2022-07-17T10:17:34;32.10;31.50
64468;DHT22;50853;46.836;16.820;2022-07-17T10:20:00;32.70;32.70
64468;DHT22;50853;46.836;16.820;2022-07-17T10:22:26;32.40;32.20
64468;DHT22;50853;46.836;16.820;2022-07-17T10:24:53;32.30;29.40
64468;DHT22;50853;46.836;16.820;2022-07-17T10:27:27;31.80;31.40
64468;DHT22;50853;46.836;16.820;2022-07-17T10:30:10;32.50;32.60
64468;DHT22;50853;46.836;16.820;2022-07-17T10:32:37;32.40;33.70
64468;DHT22;50853;46.836;16.820;2022-07-17T10:35:09;32.30;32.20
64468;DHT22;50853;46.836;16.820;2022-07-17T10:45:14;32.90;34.80
64468;DHT22;50853;46.836;16.820;2022-07-17T10:47:57;33.20;33.00
64468;DHT22;50853;46.836;16.820;2022-07-17T10:50:45;32.80;29.10
64468;DHT22;50853;46.836;16.820;2022-07-17T10:53:16;33.00;32.20
64468;DHT22;50853;46.836;16.820;2022-07-17T10:55:45;33.50;31.80
64468;DHT22;50853;46.836;16.820;2022-07-17T11:01:08;32.70;32.80
64468;DHT22;50853;46.836;16.820;2022-07-17T11:03:39;32.00;31.00
64468;DHT22;50853;46.836;16.820;2022-07-17T11:06:07;32.30;30.60
64468;DHT22;50853;46.836;16.820;2022-07-17T11:08:39;32.70;30.90
64468;DHT22;50853;46.836;16.820;2022-07-17T11:11:05;33.10;32.40
64468;DHT22;50853;46.836;16.820;2022-07-17T11:13:31;33.00;32.10
64468;DHT22;50853;46.836;16.820;2022-07-17T11:15:57;33.10;30.40
64468;DHT22;50853;46.836;16.820;2022-07-17T11:18:23;32.80;31.60
64468;DHT22;50853;46.836;16.820;2022-07-17T11:23:22;32.50;31.20
64468;DHT22;50853;46.836;16.820;2022-07-17T11:26:15;32.70;29.70
64468;DHT22;50853;46.836;16.820;2022-07-17T11:28:44;32.60;30.50
64468;DHT22;50853;46.836;16.820;2022-07-17T11:31:25;31.90;27.90
64468;DHT22;50853;46.836;16.820;2022-07-17T11:34:11;32.70;29.50
64468;DHT22;50853;46.836;16.820;2022-07-17T11:36:44;32.80;30.10
64468;DHT22;50853;46.836;16.820;2022-07-17T11:39:13;32.60;31.00
64468;DHT22;50853;46.836;16.820;2022-07-17T11:41:45;32.50;32.70
64468;DHT22;50853;46.836;16.820;2022-07-17T11:44:17;32.20;30.50
64468;DHT22;50853;46.836;16.820;2022-07-17T11:46:45;32.40;31.90
64468;DHT22;50853;46.836;16.820;2022-07-17T11:49:33;32.60;31.30
64468;DHT22;50853;46.836;16.820;2022-07-17T11:52:05;32.80;29.70
64468;DHT22;50853;46.836;16.820;2022-07-17T11:54:32;32.00;29.90
64468;DHT22;50853;46.836;16.820;2022-07-17T11:56:59;32.20;29.60
64468;DHT22;50853;46.836;16.820;2022-07-17T11:59:32;32.60;33.10
64468;DHT22;50853;46.836;16.820;2022-07-17T12:02:13;33.00;33.30
64468;DHT22;50853;46.836;16.820;2022-07-17T12:07:18;33.30;32.80
64468;DHT22;50853;46.836;16.820;2022-07-17T12:09:44;33.00;29.10
64468;DHT22;50853;46.836;16.820;2022-07-17T12:12:24;32.50;28.80
64468;DHT22;50853;46.836;16.820;2022-07-17T12:14:51;32.50;31.20
64468;DHT22;50853;46.836;16.820;2022-07-17T12:17:17;32.30;30.10
64468;DHT22;50853;46.836;16.820;2022-07-17T12:19:44;32.50;32.00
64468;DHT22;50853;46.836;16.820;2022-07-17T12:22:10;33.00;33.10
64468;DHT22;50853;46.836;16.820;2022-07-17T12:24:37;32.60;30.00
64468;DHT22;50853;46.836;16.820;2022-07-17T12:27:06;33.10;32.80
64468;DHT22;50853;46.836;16.820;2022-07-17T12:29:34;33.40;33.20
64468;DHT22;50853;46.836;16.820;2022-07-17T12:32:16;33.30;33.40
64468;DHT22;50853;46.836;16.820;2022-07-17T12:34:46;33.40;32.50
64468;DHT22;50853;46.836;16.820;2022-07-17T12:37:16;33.30;32.40
64468;DHT22;50853;46.836;16.820;2022-07-17T12:39:44;33.10;31.50
64468;DHT22;50853;46.836;16.820;2022-07-17T12:42:10;32.90;30.80
64468;DHT22;50853;46.836;16.820;2022-07-17T12:44:37;33.10;30.60
64468;DHT22;50853;46.836;16.820;2022-07-17T12:47:03;32.80;31.00
64468;DHT22;50853;46.836;16.820;2022-07-17T12:49:30;32.70;31.10
64468;DHT22;50853;46.836;16.820;2022-07-17T12:51:57;33.00;31.60
64468;DHT22;50853;46.836;16.820;2022-07-17T12:54:23;32.60;30.90
64468;DHT22;50853;46.836;16.820;2022-07-17T12:56:49;32.90;31.90
64468;DHT22;50853;46.836;16.820;2022-07-17T12:59:15;33.10;31.30
64468;DHT22;50853;46.836;16.820;2022-07-17T13:01:40;33.00;32.30
64468;DHT22;50853;46.836;16.820;2022-07-17T13:04:06;33.00;32.30
64468;DHT22;50853;46.836;16.820;2022-07-17T13:06:32;32.90;31.90
64468;DHT22;50853;46.836;16.820;2022-07-17T13:08:59;32.80;30.70
64468;DHT22;50853;46.836;16.820;2022-07-17T13:11:25;32.90;30.70
64468;DHT22;50853;46.836;16.820;2022-07-17T13:13:53;32.80;31.30
64468;DHT22;50853;46.836;16.820;2022-07-17T13:16:19;32.40;28.90
64468;DHT22;50853;46.836;16.820;2022-07-17T13:18:45;32.20;29.80
64468;DHT22;50853;46.836;16.820;2022-07-17T13:21:11;32.20;30.00
64468;DHT22;50853;46.836;16.820;2022-07-17T13:23:37;32.50;31.20
64468;DHT22;50853;46.836;16.820;2022-07-17T13:26:03;32.80;30.80
64468;DHT22;50853;46.836;16.820;2022-07-17T13:28:29;33.00;32.70
64468;DHT22;50853;46.836;16.820;2022-07-17T13:30:55;32.80;31.60
64468;DHT22;50853;46.836;16.820;2022-07-17T13:33:23;32.60;29.90
64468;DHT22;50853;46.836;16.820;2022-07-17T13:35:49;32.70;29.60
64468;DHT22;50853;46.836;16.820;2022-07-17T13:38:14;32.70;29.20
64468;DHT22;50853;46.836;16.820;2022-07-17T13:40:40;32.70;30.40
64468;DHT22;50853;46.836;16.820;2022-07-17T13:43:07;32.60;32.60
64468;DHT22;50853;46.836;16.820;2022-07-17T13:45:33;32.60;32.90
64468;DHT22;50853;46.836;16.820;2022-07-17T13:47:59;32.20;29.80
64468;DHT22;50853;46.836;16.820;2022-07-17T13:50:26;32.40;29.90
64468;DHT22;50853;46.836;16.820;2022-07-17T13:52:52;32.30;29.50
64468;DHT22;50853;46.836;16.820;2022-07-17T13:55:19;32.40;30.70
64468;DHT22;50853;46.836;16.820;2022-07-17T13:57:45;32.40;31.30
64468;DHT22;50853;46.836;16.820;2022-07-17T14:00:11;32.40;31.80
64468;DHT22;50853;46.836;16.820;2022-07-17T14:02:37;32.10;29.50
64468;DHT22;50853;46.836;16.820;2022-07-17T14:05:05;32.20;31.50
64468;DHT22;50853;46.836;16.820;2022-07-17T14:07:31;32.20;32.50
64468;DHT22;50853;46.836;16.820;2022-07-17T14:09:57;32.10;31.10
64468;DHT22;50853;46.836;16.820;2022-07-17T14:12:22;32.10;32.30
64468;DHT22;50853;46.836;16.820;2022-07-17T14:14:49;32.00;31.10
64468;DHT22;50853;46.836;16.820;2022-07-17T14:17:14;31.80;31.60
64468;DHT22;50853;46.836;16.820;2022-07-17T14:19:44;31.50;32.40
64468;DHT22;50853;46.836;16.820;2022-07-17T14:22:10;30.90;29.90
64468;DHT22;50853;46.836;16.820;2022-07-17T14:24:36;30.70;31.30
64468;DHT22;50853;46.836;16.820;2022-07-17T14:27:02;30.80;34.50
64468;DHT22;50853;46.836;16.820;2022-07-17T14:29:28;30.60;30.50
64468;DHT22;50853;46.836;16.820;2022-07-17T14:31:53;30.40;30.00
64468;DHT22;50853;46.836;16.820;2022-07-17T14:34:20;30.20;30.00
64468;DHT22;50853;46.836;16.820;2022-07-17T14:36:47;29.80;29.30
64468;DHT22;50853;46.836;16.820;2022-07-17T14:39:13;29.70;30.00
64468;DHT22;50853;46.836;16.820;2022-07-17T14:41:39;29.70;32.50
64468;DHT22;50853;46.836;16.820;2022-07-17T14:44:05;29.70;31.30
64468;DHT22;50853;46.836;16.820;2022-07-17T14:46:31;29.60;32.90
64468;DHT22;50853;46.836;16.820;2022-07-17T14:48:57;29.60;34.90
64468;DHT22;50853;46.836;16.820;2022-07-17T14:51:23;29.60;34.20
64468;DHT22;50853;46.836;16.820;2022-07-17T14:53:49;29.20;32.70
64468;DHT22;50853;46.836;16.820;2022-07-17T14:56:15;29.00;31.60
64468;DHT22;50853;46.836;16.820;2022-07-17T14:58:41;29.00;31.20
64468;DHT22;50853;46.836;16.820;2022-07-17T15:01:07;29.10;31.00
64468;DHT22;50853;46.836;16.820;2022-07-17T15:03:33;29.00;30.50
64468;DHT22;50853;46.836;16.820;2022-07-17T15:05:59;28.90;30.20
64468;DHT22;50853;46.836;16.820;2022-07-17T15:08:25;28.80;31.30
64468;DHT22;50853;46.836;16.820;2022-07-17T15:10:51;28.60;30.30
64468;DHT22;50853;46.836;16.820;2022-07-17T15:13:16;28.50;31.40
64468;DHT22;50853;46.836;16.820;2022-07-17T15:15:42;28.30;31.00
64468;DHT22;50853;46.836;16.820;2022-07-17T15:18:08;28.10;30.20
64468;DHT22;50853;46.836;16.820;2022-07-17T15:20:34;28.20;31.30
64468;DHT22;50853;46.836;16.820;2022-07-17T15:23:02;28.20;32.20
64468;DHT22;50853;46.836;16.820;2022-07-17T15:25:28;28.00;30.40
64468;DHT22;50853;46.836;16.820;2022-07-17T15:27:54;27.70;30.90
64468;DHT22;50853;46.836;16.820;2022-07-17T15:30:20;27.70;31.90
64468;DHT22;50853;46.836;16.820;2022-07-17T15:32:46;27.40;31.20
64468;DHT22;50853;46.836;16.820;2022-07-17T15:35:12;27.30;31.30
64468;DHT22;50853;46.836;16.820;2022-07-17T15:37:38;27.30;32.60
64468;DHT22;50853;46.836;16.820;2022-07-17T15:40:04;27.30;31.40
64468;DHT22;50853;46.836;16.820;2022-07-17T15:42:30;27.10;30.30
64468;DHT22;50853;46.836;16.820;2022-07-17T15:44:56;27.20;31.00